Time;durP1;ratioP1;P1;durP2;ratioP2;P2;SDS_P1;SDS_P2;PMS_P1;PMS_P2;Temp;Humidity;BMP_temperature;BMP_pressure;BME280_temperature;BME280_humidity;BME280_pressure;Samples;Min_cycle;Max_cycle;Signal;HPM_P1;HPM_P2
2023/07/21 00:00:18;;;;;;;5.67;5.03;;;14.80;99.90;;;;;;5033337;28;20513;-71
2023/07/21 00:02:51;;;;;;;5.83;5.33;;;14.70;99.90;;;;;;5031964;28;20463;-71
2023/07/21 00:05:22;;;;;;;5.63;5.13;;;14.70;99.90;;;;;;5033508;28;20413;-71
2023/07/21 00:07:51;;;;;;;6.13;5.57;;;14.70;99.90;;;;;;5033411;28;20431;-71
2023/07/21 00:10:19;;;;;;;5.70;5.20;;;14.70;99.90;;;;;;5033095;28;20874;-71
2023/07/21 00:12:48;;;;;;;5.30;4.90;;;14.60;99.90;;;;;;5031904;28;20493;-71
2023/07/21 00:15:19;;;;;;;7.30;5.57;;;14.60;99.90;;;;;;5033346;28;20439;-71
2023/07/21 00:17:48;;;;;;;5.70;5.30;;;14.60;99.90;;;;;;5032056;28;21031;-71
2023/07/21 00:20:21;;;;;;;6.30;5.70;;;14.60;99.90;;;;;;5033001;28;20499;-71
2023/07/21 00:22:51;;;;;;;4.70;4.30;;;14.60;99.90;;;;;;5031827;28;20987;-71
2023/07/21 00:25:19;;;;;;;4.90;4.50;;;14.60;99.90;;;;;;5033614;28;20427;-71
2023/07/21 00:27:48;;;;;;;5.33;4.80;;;14.60;99.90;;;;;;5033628;28;20442;-71
2023/07/21 00:30:17;;;;;;;6.93;6.33;;;14.50;99.90;;;;;;5032536;28;20891;-71
2023/07/21 00:32:45;;;;;;;5.30;4.90;;;14.50;99.90;;;;;;5032954;28;20977;-70
2023/07/21 00:35:13;;;;;;;6.87;5.77;;;14.50;99.90;;;;;;5033838;28;20432;-71
2023/07/21 00:37:42;;;;;;;7.50;6.87;;;14.50;99.90;;;;;;5033499;28;20450;-70
2023/07/21 00:40:19;;;;;;;7.43;6.73;;;14.50;99.90;;;;;;5031735;28;20840;-70
2023/07/21 00:42:48;;;;;;;6.23;5.73;;;14.50;99.90;;;;;;5034323;28;20422;-71
2023/07/21 00:45:16;;;;;;;6.33;5.73;;;14.50;99.90;;;;;;5037331;28;20405;-70
2023/07/21 00:47:45;;;;;;;5.70;5.30;;;14.50;99.90;;;;;;5035562;28;20430;-70
2023/07/21 00:50:15;;;;;;;5.50;5.10;;;14.50;99.90;;;;;;5036642;28;20462;-70
2023/07/21 00:52:43;;;;;;;5.40;4.97;;;14.40;99.90;;;;;;5035411;28;20447;-70
2023/07/21 00:55:13;;;;;;;5.90;5.00;;;14.40;99.90;;;;;;5036857;28;20536;-70
2023/07/21 00:57:43;;;;;;;5.43;5.03;;;14.40;99.90;;;;;;5035534;28;20867;-70
2023/07/21 01:00:12;;;;;;;5.40;4.90;;;14.40;99.90;;;;;;5035229;28;20470;-70
2023/07/21 01:02:41;;;;;;;5.00;4.60;;;14.40;99.90;;;;;;5035195;28;20454;-70
2023/07/21 01:05:12;;;;;;;5.43;5.00;;;14.30;99.90;;;;;;5035089;28;20474;-70
2023/07/21 01:07:42;;;;;;;4.70;4.30;;;14.30;99.90;;;;;;5035161;28;20435;-71
2023/07/21 01:10:13;;;;;;;5.23;4.83;;;14.30;99.90;;;;;;5035483;28;20479;-70
2023/07/21 01:12:41;;;;;;;6.90;6.40;;;14.30;99.90;;;;;;5035027;28;20435;-70
2023/07/21 01:15:11;;;;;;;9.47;8.50;;;14.30;99.90;;;;;;5035408;28;20531;-70
2023/07/21 01:17:40;;;;;;;8.17;7.47;;;14.30;99.90;;;;;;5036167;28;20435;-70
2023/07/21 01:20:11;;;;;;;7.80;7.17;;;14.30;99.90;;;;;;5034820;28;20506;-70
2023/07/21 01:22:47;;;;;;;6.70;6.10;;;14.30;99.90;;;;;;5036460;28;20427;-70
2023/07/21 01:25:19;;;;;;;5.90;5.50;;;14.20;99.90;;;;;;5036077;28;20549;-70
2023/07/21 01:27:51;;;;;;;7.17;6.57;;;14.20;99.90;;;;;;5034844;28;20442;-70
2023/07/21 01:30:21;;;;;;;6.27;5.80;;;14.20;99.90;;;;;;5036133;28;20459;-70
2023/07/21 01:32:51;;;;;;;6.70;6.10;;;14.20;99.90;;;;;;5035889;28;20462;-70
2023/07/21 01:35:22;;;;;;;6.77;6.23;;;14.20;99.90;;;;;;5034596;28;20526;-70
2023/07/21 01:37:50;;;;;;;6.60;5.77;;;14.10;99.90;;;;;;5034619;28;20439;-70
2023/07/21 01:40:20;;;;;;;6.33;5.83;;;14.10;99.90;;;;;;5034660;28;20459;-70
2023/07/21 01:42:51;;;;;;;6.13;5.63;;;14.10;99.90;;;;;;5035762;28;20848;-70
2023/07/21 01:45:19;;;;;;;6.17;5.67;;;14.10;99.90;;;;;;5036465;28;20861;-70
2023/07/21 01:47:48;;;;;;;8.47;7.77;;;14.10;99.90;;;;;;5035616;28;20521;-70
2023/07/21 01:50:18;;;;;;;8.30;7.60;;;14.10;99.90;;;;;;5034222;28;20571;-70
2023/07/21 01:52:48;;;;;;;8.70;7.90;;;14.10;99.90;;;;;;5034355;28;20462;-70
2023/07/21 01:55:23;;;;;;;6.80;6.30;;;14.10;99.90;;;;;;5035091;28;20522;-70
2023/07/21 01:57:56;;;;;;;7.57;7.00;;;14.10;99.90;;;;;;5035356;28;20525;-70
2023/07/21 02:00:28;;;;;;;7.53;6.83;;;14.10;99.90;;;;;;5034159;28;20470;-70
2023/07/21 02:03:14;;;;;;;7.00;6.50;;;14.10;99.90;;;;;;5035533;28;20415;-70
2023/07/21 02:05:43;;;;;;;7.10;6.60;;;14.10;99.90;;;;;;5035110;28;20463;-70
2023/07/21 02:08:11;;;;;;;7.00;6.50;;;14.10;99.90;;;;;;5034179;28;20505;-70
2023/07/21 02:10:42;;;;;;;7.30;6.70;;;14.10;99.90;;;;;;5033850;28;20475;-70
2023/07/21 02:13:18;;;;;;;7.90;7.30;;;14.10;99.90;;;;;;5034719;28;20848;-70
2023/07/21 02:15:47;;;;;;;7.87;7.13;;;14.10;99.90;;;;;;5033870;28;20446;-70
2023/07/21 02:18:16;;;;;;;6.30;5.70;;;14.10;99.90;;;;;;5033786;28;20468;-70
2023/07/21 02:20:45;;;;;;;7.13;6.63;;;14.10;99.90;;;;;;5033640;28;20466;-70
2023/07/21 02:23:13;;;;;;;7.80;7.20;;;14.10;99.90;;;;;;5034928;28;20439;-70
2023/07/21 02:25:44;;;;;;;7.00;6.50;;;14.10;99.90;;;;;;5033868;28;20963;-70
2023/07/21 02:28:12;;;;;;;6.00;5.50;;;14.10;99.90;;;;;;5034204;28;20427;-70
2023/07/21 02:30:40;;;;;;;7.27;6.67;;;14.20;99.90;;;;;;5033487;28;20834;-70
2023/07/21 02:33:10;;;;;;;7.00;6.40;;;14.10;99.90;;;;;;5033442;28;20549;-70
2023/07/21 02:35:38;;;;;;;7.97;7.03;;;14.10;99.90;;;;;;5034751;28;20797;-70
2023/07/21 02:38:06;;;;;;;5.90;5.40;;;14.10;99.90;;;;;;5033399;28;20995;-70
2023/07/21 02:40:34;;;;;;;8.03;7.40;;;14.10;99.90;;;;;;5034543;28;20599;-70
2023/07/21 02:43:04;;;;;;;7.90;7.30;;;14.10;99.90;;;;;;5033303;28;20801;-70
2023/07/21 02:45:32;;;;;;;8.57;7.87;;;14.10;99.90;;;;;;5033124;28;20482;-70
2023/07/21 02:48:02;;;;;;;8.23;7.63;;;14.10;99.90;;;;;;5034513;28;20782;-70
2023/07/21 02:50:31;;;;;;;8.80;8.10;;;14.10;99.90;;;;;;5034322;28;20466;-70
2023/07/21 02:52:59;;;;;;;8.40;7.80;;;14.10;99.90;;;;;;5034888;28;20446;-70
2023/07/21 02:55:28;;;;;;;8.60;7.90;;;14.20;99.90;;;;;;5034267;28;20526;-70
2023/07/21 02:57:58;;;;;;;9.47;8.67;;;14.10;99.90;;;;;;5033008;28;20454;-70
2023/07/21 03:00:34;;;;;;;9.30;8.60;;;14.20;99.90;;;;;;5033401;28;20474;-70
2023/07/21 03:03:15;;;;;;;9.63;8.93;;;14.20;99.90;;;;;;5033842;28;20533;-70
2023/07/21 03:05:47;;;;;;;10.70;9.83;;;14.20;99.90;;;;;;5033101;28;20517;-70
2023/07/21 03:08:15;;;;;;;11.00;10.20;;;14.10;99.90;;;;;;5032777;28;20481;-70
2023/07/21 03:10:43;;;;;;;10.97;10.10;;;14.20;99.90;;;;;;5032775;28;20548;-71
2023/07/21 03:13:14;;;;;;;10.27;9.47;;;14.10;99.90;;;;;;5032946;28;20512;-70
2023/07/21 03:15:45;;;;;;;12.80;11.90;;;14.20;99.90;;;;;;5032677;28;20979;-70
2023/07/21 03:18:17;;;;;;;10.57;9.70;;;14.20;99.90;;;;;;5032662;28;20438;-70
2023/07/21 03:21:03;;;;;;;12.20;11.10;;;14.10;99.90;;;;;;5033914;28;20458;-70
2023/07/21 03:23:32;;;;;;;11.27;10.37;;;14.20;99.90;;;;;;5032553;28;20450;-70
2023/07/21 03:26:00;;;;;;;9.83;9.10;;;14.20;99.90;;;;;;5032424;28;20474;-70
2023/07/21 03:28:33;;;;;;;10.53;9.63;;;14.20;99.90;;;;;;5032787;28;20450;-70
2023/07/21 03:31:03;;;;;;;10.97;10.10;;;14.20;99.90;;;;;;5032491;28;20838;-70
2023/07/21 03:33:40;;;;;;;10.10;9.30;;;14.20;99.90;;;;;;5032752;28;20451;-70
2023/07/21 03:36:14;;;;;;;11.70;10.80;;;14.20;99.90;;;;;;5032673;28;20461;-70
2023/07/21 03:38:42;;;;;;;10.60;9.80;;;14.20;99.90;;;;;;5032286;28;20447;-70
2023/07/21 03:41:11;;;;;;;10.80;9.77;;;14.20;99.90;;;;;;5032201;28;20459;-70
2023/07/21 03:43:41;;;;;;;10.40;9.57;;;14.20;99.90;;;;;;5032234;28;20840;-70
2023/07/21 03:46:10;;;;;;;10.73;9.90;;;14.20;99.90;;;;;;5032127;28;20470;-70
2023/07/21 03:48:55;;;;;;;10.87;9.87;;;14.20;99.90;;;;;;5032857;28;20439;-70
2023/07/21 03:51:23;;;;;;;10.40;9.57;;;14.20;99.90;;;;;;5033352;28;20458;-70
2023/07/21 03:53:52;;;;;;;10.13;9.33;;;14.20;99.90;;;;;;5033383;28;20410;-70
2023/07/21 03:56:24;;;;;;;10.63;9.63;;;14.20;99.90;;;;;;5032150;28;20442;-70
2023/07/21 03:58:55;;;;;;;9.80;9.00;;;14.20;99.90;;;;;;5032069;28;20443;-70
2023/07/21 04:01:26;;;;;;;10.80;9.90;;;14.20;99.90;;;;;;5032274;28;20463;-70
2023/07/21 04:03:56;;;;;;;9.83;9.13;;;14.20;99.90;;;;;;5032219;28;20450;-70
2023/07/21 04:06:24;;;;;;;10.03;9.03;;;14.20;99.90;;;;;;5031904;28;20529;-70
2023/07/21 04:08:53;;;;;;;8.90;8.20;;;14.20;99.90;;;;;;5031970;28;20835;-70
2023/07/21 04:11:22;;;;;;;9.00;8.30;;;14.20;99.90;;;;;;5033324;28;20466;-70
2023/07/21 04:13:50;;;;;;;9.40;8.50;;;14.20;99.90;;;;;;5031893;28;20497;-70
2023/07/21 04:16:18;;;;;;;9.50;8.70;;;14.20;99.90;;;;;;5033119;28;20471;-70
2023/07/21 04:18:48;;;;;;;9.30;8.60;;;14.20;99.90;;;;;;5035048;28;20443;-70
2023/07/21 04:21:17;;;;;;;9.20;8.40;;;14.20;99.90;;;;;;5036295;28;20494;-70
2023/07/21 04:23:45;;;;;;;9.50;8.70;;;14.20;99.90;;;;;;5036034;28;20453;-70
2023/07/21 04:26:15;;;;;;;9.80;9.00;;;14.20;99.90;;;;;;5035835;28;20476;-70
2023/07/21 04:28:44;;;;;;;8.70;8.00;;;14.20;99.90;;;;;;5037459;28;20423;-70
2023/07/21 04:31:13;;;;;;;9.60;8.83;;;14.20;99.90;;;;;;5036086;28;20471;-70
2023/07/21 04:33:59;;;;;;;9.50;8.70;;;14.30;99.90;;;;;;5036004;28;20451;-70
2023/07/21 04:36:28;;;;;;;10.30;8.90;;;14.30;99.90;;;;;;5037215;28;20443;-70
2023/07/21 04:39:00;;;;;;;8.97;8.27;;;14.30;99.90;;;;;;5036288;28;20418;-70
2023/07/21 04:41:29;;;;;;;9.67;8.77;;;14.30;99.90;;;;;;5035506;28;21002;-70
2023/07/21 04:43:57;;;;;;;9.80;9.10;;;14.30;99.90;;;;;;5035518;28;20447;-70
2023/07/21 04:46:27;;;;;;;10.10;9.17;;;14.30;99.90;;;;;;5035619;28;20463;-70
2023/07/21 04:48:57;;;;;;;8.90;8.30;;;14.30;99.90;;;;;;5035532;28;20941;-70
2023/07/21 04:51:41;;;;;;;8.87;8.20;;;14.30;99.90;;;;;;5035597;28;20473;-70
2023/07/21 04:54:11;;;;;;;9.97;8.97;;;14.30;99.90;;;;;;5035717;28;20421;-70
2023/07/21 04:56:39;;;;;;;10.03;9.03;;;14.40;99.90;;;;;;5035627;28;20489;-70
2023/07/21 04:59:09;;;;;;;10.50;9.50;;;14.40;99.90;;;;;;5035246;28;20956;-70
2023/07/21 05:01:37;;;;;;;9.47;8.67;;;14.40;99.90;;;;;;5035219;28;20449;-70
2023/07/21 05:04:05;;;;;;;8.50;7.80;;;14.40;99.90;;;;;;5035193;28;20449;-70
2023/07/21 05:06:34;;;;;;;10.67;9.67;;;14.50;99.90;;;;;;5035036;28;20499;-70
2023/07/21 05:09:04;;;;;;;9.37;8.57;;;14.50;99.90;;;;;;5035230;28;20816;-70
2023/07/21 05:11:33;;;;;;;8.97;8.27;;;14.50;99.90;;;;;;5035161;28;20485;-70
2023/07/21 05:14:03;;;;;;;10.10;9.33;;;14.50;99.90;;;;;;5035039;28;20530;-70
2023/07/21 05:16:39;;;;;;;8.87;8.17;;;14.50;99.90;;;;;;5036835;28;20881;-70
2023/07/21 05:19:25;;;;;;;10.70;9.07;;;14.60;99.90;;;;;;5036399;28;20488;-70
2023/07/21 05:22:20;;;;;;;9.60;8.80;;;14.60;99.90;;;;;;5034869;28;20413;-70
2023/07/21 05:25:05;;;;;;;10.10;9.10;;;14.60;99.90;;;;;;5036645;28;20427;-70
2023/07/21 05:27:35;;;;;;;9.63;8.33;;;14.70;99.90;;;;;;5034940;28;20451;-70
2023/07/21 05:30:11;;;;;;;9.37;8.50;;;14.70;99.90;;;;;;5034466;28;20455;-70
2023/07/21 05:32:43;;;;;;;9.67;8.87;;;14.70;99.90;;;;;;5034941;28;20447;-70
2023/07/21 05:35:16;;;;;;;10.03;9.23;;;14.80;99.90;;;;;;5034632;28;20421;-70
2023/07/21 05:37:49;;;;;;;10.60;9.70;;;14.80;99.90;;;;;;5034629;28;20412;-70
2023/07/21 05:40:18;;;;;;;9.53;8.73;;;14.90;99.90;;;;;;5035790;28;20437;-71
2023/07/21 05:42:47;;;;;;;9.10;8.30;;;14.90;99.90;;;;;;5034475;28;20442;-71
2023/07/21 05:45:16;;;;;;;9.30;8.40;;;14.90;99.90;;;;;;5034886;28;20459;-71
2023/07/21 05:47:46;;;;;;;9.77;9.00;;;14.90;99.90;;;;;;5034420;28;20504;-71
2023/07/21 05:50:15;;;;;;;9.50;8.80;;;15.00;99.90;;;;;;5034275;28;21066;-71
2023/07/21 05:52:46;;;;;;;9.67;8.87;;;15.00;99.90;;;;;;5034787;28;20470;-70
2023/07/21 05:55:21;;;;;;;10.50;9.40;;;15.00;99.90;;;;;;5034538;28;20406;-70
2023/07/21 05:57:50;;;;;;;10.30;9.50;;;15.10;99.90;;;;;;5035593;28;20477;-71
2023/07/21 06:00:18;;;;;;;10.30;9.50;;;15.10;99.90;;;;;;5034172;28;20469;-71
2023/07/21 06:02:54;;;;;;;9.63;8.83;;;15.20;99.90;;;;;;5034334;28;20443;-71
2023/07/21 06:05:23;;;;;;;10.60;9.80;;;15.20;99.90;;;;;;5034273;28;20429;-71
2023/07/21 06:08:26;;;;;;;11.30;10.40;;;15.20;99.90;;;;;;5022720;28;20984;-71
2023/07/21 06:11:14;;;;;;;11.17;10.37;;;15.30;99.90;;;;;;5035654;28;21019;-71
2023/07/21 06:13:49;;;;;;;10.30;9.40;;;15.30;99.90;;;;;;5035275;28;20423;-71
2023/07/21 06:16:30;;;;;;;10.30;9.43;;;15.40;99.90;;;;;;5034244;28;20413;-71
2023/07/21 06:19:00;;;;;;;12.10;11.10;;;15.50;99.90;;;;;;5034219;28;20457;-71
2023/07/21 06:21:28;;;;;;;11.33;10.43;;;15.50;99.90;;;;;;5033973;28;20528;-71
2023/07/21 06:23:57;;;;;;;11.13;10.13;;;15.60;99.90;;;;;;5033873;28;20448;-71
2023/07/21 06:26:27;;;;;;;11.33;10.33;;;15.70;99.90;;;;;;5033518;28;20543;-71
2023/07/21 06:28:56;;;;;;;10.40;9.60;;;15.70;99.90;;;;;;5033684;28;20398;-71
2023/07/21 06:31:25;;;;;;;10.20;9.30;;;15.70;99.90;;;;;;5033488;28;20481;-71
2023/07/21 06:34:16;;;;;;;10.87;9.33;;;15.80;99.90;;;;;;5006636;28;20500;-70
2023/07/21 06:37:05;;;;;;;10.53;9.70;;;15.80;99.90;;;;;;5033517;28;20418;-71
2023/07/21 06:40:10;;;;;;;10.50;9.50;;;15.90;99.90;;;;;;5015234;28;20471;-71
2023/07/21 06:42:58;;;;;;;10.23;9.47;;;16.00;99.90;;;;;;5034824;28;20418;-71
2023/07/21 06:45:45;;;;;;;11.60;10.60;;;16.10;99.90;;;;;;5034842;28;20570;-71
2023/07/21 06:48:43;;;;;;;10.40;9.70;;;16.20;99.90;;;;;;5025534;28;20415;-71
2023/07/21 06:51:15;;;;;;;10.87;9.97;;;16.40;99.90;;;;;;5032270;28;20532;-71
2023/07/21 06:53:43;;;;;;;9.40;8.70;;;16.70;99.90;;;;;;5033089;28;20534;-71
2023/07/21 06:56:13;;;;;;;9.73;8.77;;;16.90;99.90;;;;;;5033194;28;20479;-70
2023/07/21 06:58:43;;;;;;;8.97;8.17;;;17.00;99.90;;;;;;5034620;28;20434;-71
2023/07/21 07:01:11;;;;;;;9.03;8.33;;;17.20;99.90;;;;;;5033341;28;20444;-70
2023/07/21 07:03:41;;;;;;;9.50;8.60;;;17.30;99.90;;;;;;5033006;28;20534;-70
2023/07/21 07:06:09;;;;;;;8.60;7.70;;;17.40;99.90;;;;;;5033369;28;20458;-70
2023/07/21 07:08:38;;;;;;;8.67;8.07;;;17.40;99.90;;;;;;5033331;28;20443;-70
2023/07/21 07:11:06;;;;;;;8.60;7.90;;;17.50;99.90;;;;;;5032856;28;20514;-70
2023/07/21 07:13:34;;;;;;;8.10;7.40;;;17.60;99.90;;;;;;5033027;28;20454;-71
2023/07/21 07:16:06;;;;;;;8.97;8.27;;;17.70;99.90;;;;;;5035027;28;20420;-71
2023/07/21 07:18:35;;;;;;;9.50;8.60;;;17.70;99.90;;;;;;5034713;28;20415;-71
2023/07/21 07:21:04;;;;;;;9.80;9.00;;;17.70;99.90;;;;;;5032936;28;20520;-70
2023/07/21 07:23:32;;;;;;;9.30;8.60;;;17.70;99.90;;;;;;5034041;28;20489;-70
2023/07/21 07:26:01;;;;;;;7.70;7.10;;;17.80;99.90;;;;;;5034650;28;20452;-70
2023/07/21 07:28:30;;;;;;;8.90;8.20;;;17.90;99.90;;;;;;5034082;28;21019;-70
2023/07/21 07:31:03;;;;;;;8.57;7.97;;;18.10;99.90;;;;;;5034071;28;20458;-70
2023/07/21 07:33:32;;;;;;;9.43;8.60;;;18.20;99.90;;;;;;5033946;28;20438;-70
2023/07/21 07:36:01;;;;;;;9.47;8.77;;;18.30;99.90;;;;;;5033190;28;20939;-70
2023/07/21 07:38:30;;;;;;;9.10;8.40;;;18.40;99.90;;;;;;5034037;28;20481;-71
2023/07/21 07:41:03;;;;;;;10.30;9.60;;;18.50;99.90;;;;;;5034000;28;20968;-71
2023/07/21 07:43:32;;;;;;;9.70;9.00;;;18.60;99.90;;;;;;5032947;28;20443;-72
2023/07/21 07:46:00;;;;;;;10.73;9.90;;;18.60;99.90;;;;;;5032802;28;20447;-70
2023/07/21 07:48:29;;;;;;;10.60;9.80;;;18.70;99.90;;;;;;5033505;28;20502;-71
2023/07/21 07:51:01;;;;;;;10.27;9.43;;;18.70;99.90;;;;;;5033610;28;20557;-72
2023/07/21 07:53:29;;;;;;;11.43;10.53;;;18.80;99.90;;;;;;5032941;28;20514;-70
2023/07/21 07:55:58;;;;;;;10.50;9.60;;;18.80;99.90;;;;;;5033666;28;20514;-71
2023/07/21 07:58:27;;;;;;;10.50;9.70;;;18.70;99.90;;;;;;5032594;28;20463;-71
2023/07/21 08:00:56;;;;;;;9.23;8.50;;;18.80;99.90;;;;;;5033909;28;20474;-70
2023/07/21 08:03:25;;;;;;;8.30;7.70;;;18.80;99.90;;;;;;5033835;28;20804;-71
2023/07/21 08:05:53;;;;;;;8.03;7.37;;;18.90;99.90;;;;;;5033641;28;20940;-71
2023/07/21 08:08:23;;;;;;;7.00;6.47;;;18.90;99.90;;;;;;5032117;28;20462;-71
2023/07/21 08:10:51;;;;;;;7.33;6.73;;;19.00;99.90;;;;;;5033536;28;20983;-71
2023/07/21 08:13:19;;;;;;;8.83;6.07;;;19.10;99.90;;;;;;5033754;28;20443;-71
2023/07/21 08:15:47;;;;;;;6.70;6.20;;;19.20;99.90;;;;;;5033442;28;20435;-71
2023/07/21 08:18:15;;;;;;;5.73;5.27;;;19.20;99.90;;;;;;5032086;28;20447;-71
2023/07/21 08:20:44;;;;;;;5.47;4.90;;;19.30;99.90;;;;;;5032014;28;20470;-71
2023/07/21 08:23:12;;;;;;;7.83;5.90;;;19.40;99.90;;;;;;5033295;28;20508;-71
2023/07/21 08:25:58;;;;;;;6.43;4.80;;;19.50;99.90;;;;;;5033895;28;20415;-70
2023/07/21 08:28:26;;;;;;;7.23;6.20;;;19.50;99.90;;;;;;5033266;28;20463;-71
2023/07/21 08:30:55;;;;;;;6.37;5.77;;;19.50;99.90;;;;;;5033485;28;20490;-71
2023/07/21 08:33:27;;;;;;;5.80;5.30;;;19.60;99.90;;;;;;5033787;28;20496;-70
2023/07/21 08:35:55;;;;;;;5.50;4.93;;;19.50;99.90;;;;;;5033697;28;20435;-71
2023/07/21 08:38:24;;;;;;;5.03;4.53;;;19.60;99.90;;;;;;5032079;28;20835;-71
2023/07/21 08:41:02;;;;;;;5.50;5.00;;;19.70;99.90;;;;;;5033563;28;20498;-70
2023/07/21 08:43:31;;;;;;;5.40;4.97;;;19.70;99.90;;;;;;5033679;28;20415;-69
2023/07/21 08:46:01;;;;;;;9.40;5.27;;;19.70;99.90;;;;;;5033018;28;20439;-71
2023/07/21 08:48:29;;;;;;;6.57;5.23;;;19.80;99.90;;;;;;5033515;28;20454;-71
2023/07/21 08:50:58;;;;;;;6.80;5.30;;;19.80;99.90;;;;;;5031693;28;20541;-71
2023/07/21 08:53:26;;;;;;;5.60;5.10;;;19.90;99.90;;;;;;5033022;28;20526;-71
2023/07/21 08:55:56;;;;;;;4.93;4.43;;;20.00;99.90;;;;;;5032195;28;20447;-71
2023/07/21 08:58:27;;;;;;;4.60;4.10;;;20.10;99.90;;;;;;5033664;28;20477;-72
2023/07/21 09:00:56;;;;;;;4.53;4.00;;;20.10;99.90;;;;;;5031740;28;21027;-71
2023/07/21 09:03:26;;;;;;;4.40;3.90;;;20.20;99.90;;;;;;5032439;28;20522;-71
2023/07/21 09:05:56;;;;;;;5.03;4.30;;;20.30;99.90;;;;;;5036797;28;20457;-71
2023/07/21 09:08:27;;;;;;;4.67;4.13;;;20.30;99.90;;;;;;5036815;28;20458;-72
2023/07/21 09:10:59;;;;;;;4.73;3.80;;;20.30;99.90;;;;;;5035315;28;20478;-71
2023/07/21 09:13:30;;;;;;;4.37;3.97;;;20.40;99.90;;;;;;5036715;28;20487;-72
2023/07/21 09:15:59;;;;;;;4.63;4.20;;;20.40;99.90;;;;;;5036674;28;20423;-71
2023/07/21 09:18:29;;;;;;;4.43;3.50;;;20.40;99.90;;;;;;5037264;28;20439;-72
2023/07/21 09:20:58;;;;;;;3.67;3.13;;;20.40;99.90;;;;;;5037124;28;20477;-72
2023/07/21 09:23:29;;;;;;;4.90;3.33;;;20.40;99.90;;;;;;5037373;28;20442;-71
2023/07/21 09:25:59;;;;;;;4.30;3.90;;;20.40;99.90;;;;;;5037132;28;20834;-72
2023/07/21 09:28:44;;;;;;;4.00;3.60;;;20.50;99.90;;;;;;5037059;28;20450;-72
2023/07/21 09:31:13;;;;;;;3.60;3.30;;;20.50;99.90;;;;;;5035514;28;20501;-72
2023/07/21 09:33:43;;;;;;;3.33;3.03;;;20.60;99.90;;;;;;5036266;28;20442;-72
2023/07/21 09:36:13;;;;;;;3.50;2.80;;;20.60;99.90;;;;;;5036984;28;20489;-72
2023/07/21 09:38:42;;;;;;;5.27;3.53;;;20.70;99.90;;;;;;5035636;28;20471;-72
2023/07/21 09:41:12;;;;;;;6.63;3.87;;;20.70;99.90;;;;;;5036726;28;20823;-72
2023/07/21 09:43:41;;;;;;;3.90;2.97;;;20.70;99.90;;;;;;5037402;28;20888;-72
2023/07/21 09:46:11;;;;;;;3.20;2.90;;;20.70;99.90;;;;;;5037346;28;20530;-72
2023/07/21 09:48:42;;;;;;;2.90;2.70;;;20.70;99.90;;;;;;5037236;28;20455;-72
2023/07/21 09:51:11;;;;;;;3.70;3.30;;;20.70;99.90;;;;;;5036467;28;20988;-72
2023/07/21 09:53:41;;;;;;;6.13;3.30;;;20.70;99.90;;;;;;5036664;28;20443;-72
2023/07/21 09:56:10;;;;;;;4.20;3.20;;;20.70;99.90;;;;;;5035184;28;20443;-72
2023/07/21 09:58:42;;;;;;;2.87;2.60;;;20.80;99.90;;;;;;5036660;28;20478;-72
2023/07/21 10:01:13;;;;;;;4.83;2.87;;;20.80;99.90;;;;;;5036782;28;20863;-72
2023/07/21 10:03:42;;;;;;;4.30;3.50;;;20.90;99.90;;;;;;5036737;28;20419;-72
2023/07/21 10:06:11;;;;;;;3.00;2.80;;;21.00;99.90;;;;;;5036266;28;20431;-72
2023/07/21 10:08:39;;;;;;;4.70;2.93;;;21.10;99.90;;;;;;5035028;28;20505;-72
2023/07/21 10:11:09;;;;;;;3.43;3.13;;;21.10;99.90;;;;;;5035965;28;20466;-72
2023/07/21 10:13:44;;;;;;;2.90;2.47;;;21.20;99.90;;;;;;5036137;28;20439;-72
2023/07/21 10:16:14;;;;;;;3.07;2.70;;;21.30;99.90;;;;;;5035639;28;20457;-72
2023/07/21 10:19:00;;;;;;;3.40;3.10;;;21.30;99.90;;;;;;5036694;28;20512;-72
2023/07/21 10:21:31;;;;;;;3.60;3.00;;;21.40;99.90;;;;;;5034374;28;20469;-72
2023/07/21 10:24:03;;;;;;;3.57;2.57;;;21.30;99.90;;;;;;5035949;28;20419;-73
2023/07/21 10:26:31;;;;;;;4.07;2.43;;;21.30;99.90;;;;;;5036180;28;20439;-72
2023/07/21 10:29:16;;;;;;;2.80;2.60;;;21.30;99.90;;;;;;5034575;28;20561;-72
2023/07/21 10:31:55;;;;;;;4.13;2.70;;;21.30;99.90;;;;;;5035724;28;20461;-72
2023/07/21 10:34:31;;;;;;;3.60;2.77;;;21.30;99.90;;;;;;5036294;28;20874;-72
2023/07/21 10:37:02;;;;;;;4.10;2.90;;;21.30;99.90;;;;;;5036116;28;20522;-72
2023/07/21 10:39:32;;;;;;;3.93;2.80;;;21.30;99.90;;;;;;5036260;28;20477;-73
2023/07/21 10:42:02;;;;;;;3.83;3.17;;;21.30;99.90;;;;;;5034527;28;20455;-73
2023/07/21 10:44:34;;;;;;;3.23;2.40;;;21.30;99.90;;;;;;5034884;28;20430;-72
2023/07/21 10:47:04;;;;;;;2.80;2.60;;;21.40;99.90;;;;;;5035356;28;20422;-72
2023/07/21 10:49:34;;;;;;;2.93;2.37;;;21.40;99.90;;;;;;5034505;28;20462;-73
2023/07/21 10:52:04;;;;;;;2.93;2.67;;;21.40;99.90;;;;;;5034497;28;20940;-72
2023/07/21 10:54:32;;;;;;;2.50;2.30;;;21.40;99.90;;;;;;5034383;28;20442;-72
2023/07/21 10:57:00;;;;;;;2.20;2.00;;;21.50;99.90;;;;;;5034365;28;20522;-72
2023/07/21 10:59:32;;;;;;;2.37;2.17;;;21.40;99.90;;;;;;5033017;28;20963;-72
2023/07/21 11:02:02;;;;;;;2.60;2.40;;;21.40;99.90;;;;;;5034191;28;20470;-72
2023/07/21 11:04:32;;;;;;;3.53;2.90;;;21.40;99.90;;;;;;5034535;28;20458;-72
2023/07/21 11:07:01;;;;;;;3.67;2.57;;;21.50;99.90;;;;;;5034301;28;20471;-72
2023/07/21 11:09:33;;;;;;;2.87;2.63;;;21.60;99.90;;;;;;5034255;28;20517;-72
2023/07/21 11:12:04;;;;;;;2.97;2.40;;;21.70;99.90;;;;;;5034252;28;20506;-72
2023/07/21 11:14:32;;;;;;;3.50;2.57;;;21.70;99.90;;;;;;5034081;28;20466;-72
2023/07/21 11:17:02;;;;;;;2.60;2.40;;;21.80;99.90;;;;;;5034168;28;20438;-72
2023/07/21 11:19:34;;;;;;;3.90;3.20;;;21.80;99.90;;;;;;5034506;28;20474;-72
2023/07/21 11:22:04;;;;;;;2.53;2.33;;;21.80;99.90;;;;;;5034471;28;20419;-72
2023/07/21 11:24:33;;;;;;;3.00;2.47;;;21.80;99.90;;;;;;5034123;28;20439;-72
2023/07/21 11:27:05;;;;;;;3.90;2.73;;;21.80;99.90;;;;;;5033754;28;20958;-72
2023/07/21 11:29:39;;;;;;;3.87;2.50;;;21.70;99.90;;;;;;5033926;28;20459;-72
2023/07/21 11:32:17;;;;;;;3.23;2.73;;;21.70;99.90;;;;;;5033781;28;20420;-72
2023/07/21 11:34:54;;;;;;;2.77;2.57;;;21.60;99.90;;;;;;5033860;28;20427;-72
2023/07/21 11:37:23;;;;;;;3.07;2.87;;;21.70;99.90;;;;;;5034395;28;20415;-75
2023/07/21 11:39:56;;;;;;;3.50;2.47;;;21.80;99.90;;;;;;5032286;28;20526;-75
2023/07/21 11:42:25;;;;;;;2.20;2.00;;;21.80;99.90;;;;;;5032526;28;20435;-75
2023/07/21 11:44:53;;;;;;;3.20;2.60;;;21.90;99.90;;;;;;5033513;28;20935;-75
2023/07/21 11:47:22;;;;;;;3.03;2.07;;;22.00;99.70;;;;;;5032232;28;20446;-75
2023/07/21 11:49:54;;;;;;;2.13;1.93;;;22.10;99.80;;;;;;5033301;28;20471;-75
2023/07/21 11:52:25;;;;;;;2.60;2.03;;;22.20;99.30;;;;;;5033475;28;20758;-72
2023/07/21 11:54:56;;;;;;;2.83;1.83;;;22.10;99.40;;;;;;5033668;28;20473;-72
2023/07/21 11:57:24;;;;;;;2.30;2.10;;;22.10;99.60;;;;;;5033821;28;20522;-73
2023/07/21 11:59:53;;;;;;;2.13;1.93;;;22.10;99.10;;;;;;5033531;28;20435;-73
2023/07/21 12:02:22;;;;;;;2.07;1.77;;;22.10;99.00;;;;;;5032252;28;21017;-73
2023/07/21 12:04:53;;;;;;;2.50;2.30;;;22.10;98.90;;;;;;5035401;28;20419;-73
2023/07/21 12:07:22;;;;;;;2.10;1.90;;;22.10;98.90;;;;;;5034548;28;20439;-73
2023/07/21 12:09:50;;;;;;;4.17;2.00;;;22.20;98.80;;;;;;5033077;28;20478;-73
2023/07/21 12:12:18;;;;;;;3.20;1.90;;;22.20;98.60;;;;;;5033975;28;20454;-73
2023/07/21 12:14:46;;;;;;;2.00;1.63;;;22.20;98.50;;;;;;5033242;28;21023;-73
2023/07/21 12:17:15;;;;;;;2.27;1.70;;;22.20;98.30;;;;;;5033209;28;20469;-73
2023/07/21 12:19:46;;;;;;;2.50;1.53;;;22.20;98.20;;;;;;5033377;28;20810;-73
2023/07/21 12:22:16;;;;;;;2.87;1.90;;;22.10;98.20;;;;;;5033408;28;20493;-73
2023/07/21 12:24:44;;;;;;;2.60;1.70;;;22.20;98.20;;;;;;5033165;28;20921;-73
2023/07/21 12:27:13;;;;;;;1.87;1.67;;;22.10;97.70;;;;;;5033047;28;20505;-73
2023/07/21 12:29:41;;;;;;;2.17;1.87;;;22.10;97.80;;;;;;5032896;28;20553;-73
2023/07/21 12:32:14;;;;;;;2.10;1.67;;;22.20;97.70;;;;;;5033369;28;20415;-73
2023/07/21 12:34:42;;;;;;;2.07;1.47;;;22.30;97.50;;;;;;5033283;28;20796;-73
2023/07/21 12:37:10;;;;;;;2.30;1.60;;;22.30;97.60;;;;;;5033301;28;21013;-73
2023/07/21 12:39:40;;;;;;;3.90;2.03;;;22.40;97.60;;;;;;5035822;28;20955;-73
2023/07/21 12:42:09;;;;;;;4.10;2.03;;;22.50;97.20;;;;;;5036947;28;20444;-73
2023/07/21 12:44:37;;;;;;;3.17;1.60;;;22.40;97.20;;;;;;5036920;28;20952;-73
2023/07/21 12:47:06;;;;;;;2.23;1.80;;;22.40;97.30;;;;;;5036814;28;20881;-73
2023/07/21 12:49:34;;;;;;;2.23;2.00;;;22.40;97.30;;;;;;5036791;28;20473;-73
2023/07/21 12:52:02;;;;;;;3.13;2.20;;;22.40;97.70;;;;;;5036655;28;20486;-73
2023/07/21 12:54:30;;;;;;;3.10;1.30;;;22.50;97.40;;;;;;5037129;28;20525;-73
2023/07/21 12:57:00;;;;;;;3.00;1.70;;;22.50;97.20;;;;;;5036792;28;20485;-73
2023/07/21 12:59:29;;;;;;;2.20;1.70;;;22.40;97.10;;;;;;5036660;28;20473;-73
2023/07/21 13:01:57;;;;;;;1.77;1.47;;;22.40;97.10;;;;;;5036461;28;20538;-73
2023/07/21 13:04:25;;;;;;;1.97;1.60;;;22.40;97.00;;;;;;5036511;28;20439;-73